Isabel, SD

1:58 AM MDT on July 01, 2015 (GMT -0600)
East side of Isabel | | Change Station
CLOSE
Current Station
Personal Weather Station
Location: Isabel, SD
Elevation: 2402 ft
Nearby Weather Stations

Elev 2402 ft 45.39 °N, 101.42 °W | Updated 18 seconds ago

Partly Cloudy
Partly Cloudy
63.3 °F
Feels Like 63.3 °F
N
0.0
Wind Variable Wind from SSW
Gusts 0.0 mph

Today
High -- | Low -- °F
--% Chance of Precip.
Yesterday
High -- | Low -- °F
Precip. -- in
5:01 AM 8:37 PM
Waxing Gibbous, 99% visible
Pressure 29.84 in
Visibility 5.0 miles
Clouds Clear
Dew Point 62 °F
Humidity 97%
Rainfall 0.00 in
Snow Depth Not available.
UV 0.0 out of 12
Pollen 4.00 out of 12
Air Quality Not available.
Flu Activity Not available.
METAR KMBG 010752Z AUTO 09014KT 5SM BR CLR 18/18 A2986 RMK AO2 WSHFT 0643 RAE20 TSB03E24 SLP104 P0017 T01830178

More Conditions Fewer Conditions

Pressure 29.84 in
Visibility 5.0 miles
Clouds Clear
Dew Point 62 °F
Humidity 97%
Rainfall 0.00 in
Snow Depth Not available.
UV 0.0 out of 12
Pollen 4.00 out of 12
Air Quality Not available.
Flu Activity Not available.
METAR KMBG 010752Z AUTO 09014KT 5SM BR CLR 18/18 A2986 RMK AO2 WSHFT 0643 RAE20 TSB03E24 SLP104 P0017 T01830178

More Conditions Fewer Conditions

10-Day Weather Forecast

×

Almanac

Astronomy

Jul. 01, 2015 Rise Set
Actual Time
Civil Twilight
Nautical Twilight
Astronomical Twilight
Moon
Length of Visible Light
Length of Day
Tomorrow will be .
, % of the Moon is Illuminated

Today's Extremes

State Highs State Lows

Community

WunderPhotos

Upload Photos

1,834,164 photos uploaded!

WunderBlogs® & News

Nearby

Air Quality

  Air Quality AQ Index Pollutant
Not available.

Snow Depth

Station Depth Elevation

Earthquake Activity

City Distance Mag. Time & Date
Minimum magnitude displayed is 2.5.

Coastal Water Temperatures

Place Temperature

Stations

Nearby Weather Stations

Station Location Temp. Windchill Dew Point Humidity Wind Precip. Elev Updated Type